Time;durP1;ratioP1;P1;durP2;ratioP2;P2;SDS_P1;SDS_P2;PMS_P1;PMS_P2;Temp;Humidity;BMP_temperature;BMP_pressure;BME280_temperature;BME280_humidity;BME280_pressure;Samples;Min_cycle;Max_cycle;Signal;HPM_P1;HPM_P2
2021/06/10 00:01:25;;;;;;;13.65;11.15;;;18.00;75.90;;;;;;4995159;28;20038;-67
2021/06/10 00:03:51;;;;;;;13.00;11.70;;;18.00;75.80;;;;;;4994907;28;20038;-67
2021/06/10 00:06:16;;;;;;;13.65;12.25;;;18.00;75.90;;;;;;4996592;28;20497;-67
2021/06/10 00:08:42;;;;;;;14.95;12.65;;;18.00;76.00;;;;;;4995401;28;20053;-67
2021/06/10 00:11:07;;;;;;;14.05;12.57;;;18.00;76.10;;;;;;4989589;28;20069;-68
2021/06/10 00:13:33;;;;;;;13.98;12.55;;;18.00;76.20;;;;;;4993641;28;20034;-67
2021/06/10 00:15:59;;;;;;;14.07;12.70;;;17.90;76.10;;;;;;4994962;28;20044;-67
2021/06/10 00:18:24;;;;;;;14.77;13.30;;;17.90;76.50;;;;;;4994058;28;20033;-67
2021/06/10 00:20:50;;;;;;;15.32;13.80;;;17.90;76.60;;;;;;4994512;28;20080;-67
2021/06/10 00:23:16;;;;;;;14.05;12.65;;;17.90;76.80;;;;;;4998427;28;20028;-67
2021/06/10 00:25:42;;;;;;;15.15;13.63;;;17.90;76.90;;;;;;4997210;28;20061;-67
2021/06/10 00:28:08;;;;;;;16.17;13.23;;;17.90;76.90;;;;;;4991132;28;20076;-67
2021/06/10 00:30:34;;;;;;;14.07;12.50;;;17.90;76.90;;;;;;4993033;28;20435;-67
2021/06/10 00:33:00;;;;;;;14.70;12.43;;;17.90;77.00;;;;;;4995061;28;20601;-67
2021/06/10 00:35:26;;;;;;;15.07;13.45;;;17.90;77.00;;;;;;4994284;28;20037;-67
2021/06/10 00:37:56;;;;;;;13.77;12.30;;;17.90;76.80;;;;;;4995878;28;20034;-67
2021/06/10 00:40:22;;;;;;;14.35;12.85;;;17.90;76.60;;;;;;4993310;28;20061;-67
2021/06/10 00:42:48;;;;;;;14.02;12.63;;;17.90;76.60;;;;;;4994836;28;20029;-68
2021/06/10 00:45:16;;;;;;;14.60;12.70;;;17.80;76.60;;;;;;4992932;28;20041;-67
2021/06/10 00:47:43;;;;;;;13.80;12.40;;;17.80;76.70;;;;;;4991643;28;20045;-68
2021/06/10 00:50:10;;;;;;;16.35;12.27;;;17.70;76.60;;;;;;4995877;28;20475;-68
2021/06/10 00:52:36;;;;;;;13.35;12.02;;;17.70;76.70;;;;;;4998507;28;20400;-68
2021/06/10 00:55:03;;;;;;;14.18;12.40;;;17.70;76.80;;;;;;4996486;28;20034;-68
2021/06/10 00:57:28;;;;;;;15.27;12.13;;;17.60;77.00;;;;;;4996392;28;20041;-68
2021/06/10 00:59:54;;;;;;;13.88;12.48;;;17.60;76.90;;;;;;4996073;28;20046;-68
2021/06/10 01:02:20;;;;;;;14.55;12.23;;;17.50;76.80;;;;;;4996042;28;20045;-68
2021/06/10 01:04:46;;;;;;;14.05;12.45;;;17.50;76.90;;;;;;4997535;28;20042;-67
2021/06/10 01:07:37;;;;;;;13.90;12.48;;;17.40;76.90;;;;;;4996645;28;20073;-68
2021/06/10 01:10:09;;;;;;;13.32;12.02;;;17.40;77.50;;;;;;4995596;28;20042;-67
2021/06/10 01:13:07;;;;;;;14.88;13.35;;;17.30;77.00;;;;;;4996806;28;20449;-68
2021/06/10 01:15:38;;;;;;;13.70;12.20;;;17.30;77.60;;;;;;4993460;28;20060;-68
2021/06/10 01:18:04;;;;;;;14.07;12.57;;;17.20;77.00;;;;;;4997864;28;20428;-67
2021/06/10 01:20:32;;;;;;;13.77;12.38;;;17.10;77.00;;;;;;4996737;28;20030;-67
2021/06/10 01:22:58;;;;;;;13.35;12.05;;;17.10;77.30;;;;;;4997470;28;20037;-67
2021/06/10 01:25:38;;;;;;;13.60;12.30;;;17.10;77.40;;;;;;4995866;28;20030;-67
2021/06/10 01:28:13;;;;;;;16.40;13.93;;;17.10;77.70;;;;;;4996301;28;20061;-68
2021/06/10 01:30:46;;;;;;;;;;;17.10;78.00;;;;;;5012700;28;20046;-68
2021/06/10 01:33:32;;;;;;;13.18;11.65;;;17.10;78.00;;;;;;4995684;28;20317;-67
2021/06/10 01:36:01;;;;;;;13.48;12.07;;;17.00;77.80;;;;;;4995492;28;20124;-68
2021/06/10 01:38:31;;;;;;;13.88;12.43;;;17.00;77.30;;;;;;4997904;28;20064;-68
2021/06/10 01:40:58;;;;;;;13.85;12.43;;;17.00;77.60;;;;;;4997964;28;20034;-68
2021/06/10 01:43:30;;;;;;;18.75;13.38;;;17.00;77.50;;;;;;4993385;28;20085;-67
2021/06/10 01:45:57;;;;;;;14.20;12.70;;;16.90;77.60;;;;;;4995846;28;20038;-67
2021/06/10 01:48:24;;;;;;;13.30;11.93;;;16.90;77.50;;;;;;4998087;28;20038;-68
2021/06/10 01:50:54;;;;;;;14.20;12.73;;;16.90;77.60;;;;;;4998371;28;20652;-68
2021/06/10 01:53:20;;;;;;;13.63;12.25;;;16.90;77.70;;;;;;4998730;28;20557;-68
2021/06/10 01:55:48;;;;;;;14.65;12.18;;;16.90;77.70;;;;;;4995276;28;20042;-67
2021/06/10 01:58:16;;;;;;;13.75;12.35;;;16.90;77.60;;;;;;4996551;28;20101;-68
2021/06/10 02:00:42;;;;;;;13.65;12.27;;;16.80;77.50;;;;;;4997570;28;20112;-68
2021/06/10 02:03:09;;;;;;;14.05;12.55;;;16.80;77.50;;;;;;4996180;28;20031;-67
2021/06/10 02:05:37;;;;;;;13.65;12.25;;;16.80;77.60;;;;;;4994563;28;20037;-67
2021/06/10 02:08:07;;;;;;;13.23;11.93;;;16.80;77.60;;;;;;4995485;28;20030;-68
2021/06/10 02:10:33;;;;;;;13.15;11.73;;;16.70;77.30;;;;;;4995124;28;20580;-68
2021/06/10 02:12:59;;;;;;;13.50;12.07;;;16.70;77.40;;;;;;5001361;28;20136;-67
2021/06/10 02:15:25;;;;;;;13.00;11.63;;;16.70;77.40;;;;;;4995952;28;20030;-67
2021/06/10 02:17:51;;;;;;;13.82;11.50;;;16.70;77.50;;;;;;4997054;28;20448;-67
2021/06/10 02:20:19;;;;;;;15.43;12.90;;;16.70;77.40;;;;;;5000553;28;20520;-67
2021/06/10 02:22:45;;;;;;;14.65;13.05;;;16.60;77.40;;;;;;4997636;28;20120;-67
2021/06/10 02:25:11;;;;;;;13.93;12.48;;;16.60;77.40;;;;;;4997320;28;20428;-67
2021/06/10 02:27:37;;;;;;;15.00;12.23;;;16.50;77.40;;;;;;4995914;28;20026;-67
2021/06/10 02:30:05;;;;;;;13.48;12.00;;;16.50;77.50;;;;;;5001741;28;20117;-67
2021/06/10 02:32:31;;;;;;;14.95;12.57;;;16.50;77.60;;;;;;4999455;28;20034;-68
2021/06/10 02:34:56;;;;;;;13.88;12.48;;;16.40;77.70;;;;;;4995455;28;20022;-67
2021/06/10 02:37:24;;;;;;;15.30;12.05;;;16.40;77.80;;;;;;4996791;28;20026;-67
2021/06/10 02:39:53;;;;;;;14.70;13.13;;;16.30;77.90;;;;;;4994841;28;20037;-67
2021/06/10 02:42:19;;;;;;;16.02;13.35;;;16.40;78.20;;;;;;5010360;28;20126;-67
2021/06/10 02:44:49;;;;;;;14.27;12.82;;;16.30;78.10;;;;;;5004322;28;20429;-67
2021/06/10 02:47:16;;;;;;;12.98;11.68;;;16.30;78.30;;;;;;4997597;28;20070;-67
2021/06/10 02:49:45;;;;;;;14.23;12.05;;;16.20;78.40;;;;;;4998800;28;20073;-68
2021/06/10 02:52:16;;;;;;;13.45;12.05;;;16.20;78.40;;;;;;4994025;28;20038;-67
2021/06/10 02:54:44;;;;;;;16.33;11.48;;;16.10;78.40;;;;;;4996021;28;22331;-67
2021/06/10 02:57:10;;;;;;;12.60;11.05;;;16.10;78.40;;;;;;4995378;28;20037;-67
2021/06/10 02:59:40;;;;;;;12.75;11.45;;;16.10;78.20;;;;;;4997456;28;20069;-67
2021/06/10 03:02:06;;;;;;;12.88;11.57;;;16.10;78.20;;;;;;4998024;28;20062;-67
2021/06/10 03:04:33;;;;;;;12.70;11.40;;;16.10;78.10;;;;;;4996940;28;20061;-67
2021/06/10 03:06:59;;;;;;;12.82;11.07;;;16.10;78.00;;;;;;4999392;28;20065;-67
2021/06/10 03:09:26;;;;;;;12.07;10.88;;;16.10;78.00;;;;;;4999385;28;22408;-68
2021/06/10 03:11:52;;;;;;;12.85;10.73;;;16.10;78.00;;;;;;4991498;28;20040;-67
2021/06/10 03:14:19;;;;;;;12.57;11.32;;;16.10;77.90;;;;;;4994586;28;20671;-67
2021/06/10 03:16:46;;;;;;;12.65;10.93;;;16.10;78.00;;;;;;4994520;28;20413;-67
2021/06/10 03:19:15;;;;;;;11.77;10.57;;;16.00;77.90;;;;;;4995301;28;20545;-67
2021/06/10 03:21:40;;;;;;;13.27;11.88;;;16.00;77.90;;;;;;4996115;28;20030;-67
2021/06/10 03:24:06;;;;;;;13.32;11.98;;;16.00;78.10;;;;;;4995238;28;20034;-67
2021/06/10 03:26:35;;;;;;;13.52;12.15;;;16.00;78.50;;;;;;4994708;28;20052;-67
2021/06/10 03:29:02;;;;;;;12.85;11.45;;;16.00;78.70;;;;;;4994646;28;20034;-67
2021/06/10 03:31:29;;;;;;;13.70;12.25;;;16.00;78.80;;;;;;4997484;28;20117;-67
2021/06/10 03:33:56;;;;;;;13.75;12.27;;;16.00;78.90;;;;;;5000090;28;20041;-67
2021/06/10 03:36:22;;;;;;;12.93;11.63;;;16.00;78.80;;;;;;4991980;28;20060;-68
2021/06/10 03:38:49;;;;;;;11.82;10.63;;;16.10;78.80;;;;;;4993070;28;20452;-67
2021/06/10 03:41:17;;;;;;;12.95;11.65;;;16.10;78.70;;;;;;4991431;28;20034;-67
2021/06/10 03:43:43;;;;;;;12.82;11.50;;;16.10;78.60;;;;;;4993146;28;20038;-67
2021/06/10 03:46:09;;;;;;;14.85;13.30;;;16.10;78.50;;;;;;4992859;28;20546;-68
2021/06/10 03:48:40;;;;;;;16.60;14.13;;;16.10;78.60;;;;;;4991984;28;20728;-68
2021/06/10 03:51:13;;;;;;;14.95;13.43;;;16.20;79.60;;;;;;4994663;28;20505;-68
2021/06/10 03:53:39;;;;;;;13.60;12.20;;;16.10;78.80;;;;;;4993047;28;20034;-67
2021/06/10 03:56:05;;;;;;;12.30;11.07;;;16.10;78.70;;;;;;4993229;28;20038;-67
2021/06/10 03:58:32;;;;;;;11.70;10.50;;;16.10;79.70;;;;;;4992688;28;20558;-68
2021/06/10 04:00:58;;;;;;;11.65;10.45;;;16.10;79.10;;;;;;4992743;28;20038;-67
2021/06/10 04:03:24;;;;;;;12.00;10.80;;;16.10;79.10;;;;;;4997499;28;20053;-67
2021/06/10 04:05:49;;;;;;;18.13;15.32;;;16.10;79.10;;;;;;4994028;28;20100;-68
2021/06/10 04:08:15;;;;;;;12.88;11.65;;;16.10;79.90;;;;;;4993611;28;20057;-68
2021/06/10 04:10:41;;;;;;;12.98;11.75;;;16.20;79.10;;;;;;4992438;28;20480;-67
2021/06/10 04:13:07;;;;;;;11.02;9.98;;;16.20;79.20;;;;;;4997637;28;20037;-67
2021/06/10 04:15:33;;;;;;;12.65;11.18;;;16.20;79.10;;;;;;4994460;28;20528;-68
2021/06/10 04:17:59;;;;;;;12.27;10.48;;;16.20;79.00;;;;;;5001985;28;20038;-67
2021/06/10 04:20:25;;;;;;;12.70;11.40;;;16.20;79.00;;;;;;4994517;28;20135;-68
2021/06/10 04:22:50;;;;;;;14.70;12.52;;;16.20;79.00;;;;;;4992710;28;20038;-68
2021/06/10 04:25:16;;;;;;;13.95;12.15;;;16.30;79.10;;;;;;4996270;28;20053;-67
2021/06/10 04:27:42;;;;;;;16.10;14.30;;;16.30;79.10;;;;;;5003540;28;20037;-67
2021/06/10 04:30:09;;;;;;;16.48;14.70;;;16.30;79.30;;;;;;4992345;28;20030;-68
2021/06/10 04:32:35;;;;;;;12.27;10.98;;;16.30;79.60;;;;;;4993352;28;20086;-68
2021/06/10 04:35:03;;;;;;;11.88;10.60;;;16.30;79.60;;;;;;5000357;28;20484;-67
2021/06/10 04:37:29;;;;;;;11.77;10.15;;;16.30;79.50;;;;;;5000554;28;20046;-67
2021/06/10 04:39:54;;;;;;;10.65;9.63;;;16.30;79.60;;;;;;5000907;28;20052;-68
2021/06/10 04:42:20;;;;;;;10.75;9.57;;;16.40;79.80;;;;;;5000836;28;20121;-68
2021/06/10 04:44:46;;;;;;;11.32;9.70;;;16.40;79.80;;;;;;4999793;28;20072;-68
2021/06/10 04:47:11;;;;;;;10.50;9.38;;;16.40;79.80;;;;;;5004382;28;20036;-68
2021/06/10 04:49:37;;;;;;;9.75;8.85;;;16.40;80.00;;;;;;5005529;28;20468;-68
2021/06/10 04:52:04;;;;;;;10.15;9.15;;;16.50;80.10;;;;;;5000763;28;20466;-68
2021/06/10 04:54:30;;;;;;;11.40;9.70;;;16.50;80.30;;;;;;4999342;28;20448;-68
2021/06/10 04:56:56;;;;;;;12.48;9.30;;;16.50;80.50;;;;;;4999491;28;20038;-67
2021/06/10 04:59:21;;;;;;;10.73;9.65;;;16.50;80.50;;;;;;5001051;28;20406;-68
2021/06/10 05:01:47;;;;;;;10.60;9.50;;;16.50;80.60;;;;;;5000836;28;20114;-67
2021/06/10 05:04:12;;;;;;;10.35;8.75;;;16.60;81.70;;;;;;5000115;28;20045;-67
2021/06/10 05:06:38;;;;;;;9.63;8.73;;;16.60;80.80;;;;;;4999104;28;20040;-68
2021/06/10 05:09:04;;;;;;;10.15;9.15;;;16.70;81.00;;;;;;4999541;28;20042;-68
2021/06/10 05:11:30;;;;;;;9.20;8.23;;;16.70;81.10;;;;;;5000233;28;20517;-67
2021/06/10 05:13:55;;;;;;;10.13;8.68;;;16.80;81.20;;;;;;5000134;28;20112;-67
2021/06/10 05:16:21;;;;;;;11.75;7.80;;;16.90;81.20;;;;;;5000522;28;20126;-68
2021/06/10 05:18:46;;;;;;;9.20;8.38;;;16.90;81.30;;;;;;4998781;28;20487;-67
2021/06/10 05:21:12;;;;;;;8.38;7.63;;;17.00;81.30;;;;;;4997865;28;20035;-67
2021/06/10 05:23:42;;;;;;;10.23;7.60;;;17.10;81.20;;;;;;4997727;28;20030;-67
2021/06/10 05:26:07;;;;;;;8.65;7.78;;;17.10;81.20;;;;;;4998678;28;20042;-68
2021/06/10 05:28:36;;;;;;;7.97;7.10;;;17.20;81.20;;;;;;5000333;28;20064;-68
2021/06/10 05:31:06;;;;;;;7.82;7.07;;;17.20;81.00;;;;;;4999398;28;20096;-67
2021/06/10 05:33:32;;;;;;;8.00;7.20;;;17.30;81.00;;;;;;4999799;28;20121;-67
2021/06/10 05:35:58;;;;;;;8.68;7.78;;;17.30;80.90;;;;;;4999634;28;20493;-67
2021/06/10 05:38:24;;;;;;;8.07;7.38;;;17.40;81.00;;;;;;4997540;28;20082;-67
2021/06/10 05:40:50;;;;;;;8.70;7.80;;;17.40;80.80;;;;;;5000147;28;20436;-67
2021/06/10 05:43:15;;;;;;;9.93;8.90;;;17.50;80.80;;;;;;4999825;28;20036;-67
2021/06/10 05:45:41;;;;;;;10.13;9.20;;;17.50;81.00;;;;;;4999945;28;20050;-68
2021/06/10 05:48:07;;;;;;;11.52;8.43;;;17.50;81.00;;;;;;4999244;28;20034;-67
2021/06/10 05:50:33;;;;;;;9.40;8.60;;;17.60;81.10;;;;;;5000277;28;20030;-67
2021/06/10 05:52:58;;;;;;;11.60;8.93;;;17.60;81.00;;;;;;5000190;28;20088;-68
2021/06/10 05:55:24;;;;;;;9.18;8.38;;;17.60;82.00;;;;;;4998657;28;20026;-67
2021/06/10 05:57:50;;;;;;;9.68;8.80;;;17.60;81.20;;;;;;4998125;28;20033;-67
2021/06/10 06:00:17;;;;;;;9.73;8.80;;;17.60;81.40;;;;;;4997863;28;20544;-67
2021/06/10 06:02:43;;;;;;;10.23;9.23;;;17.60;81.40;;;;;;5001318;28;20478;-67
2021/06/10 06:05:09;;;;;;;15.48;9.73;;;17.60;81.50;;;;;;4997892;28;20053;-67
2021/06/10 06:07:35;;;;;;;10.70;9.60;;;17.50;81.40;;;;;;5000221;28;20494;-67
2021/06/10 06:10:02;;;;;;;11.35;10.00;;;17.50;81.50;;;;;;5006531;28;20037;-68
2021/06/10 06:12:28;;;;;;;11.18;10.07;;;17.50;82.00;;;;;;4996882;28;20530;-67
2021/06/10 06:14:54;;;;;;;12.90;10.45;;;17.50;82.00;;;;;;4999932;28;20073;-67
2021/06/10 06:17:20;;;;;;;11.52;10.43;;;17.50;82.20;;;;;;5004778;28;20069;-67
2021/06/10 06:19:46;;;;;;;10.50;9.50;;;17.50;82.20;;;;;;5005210;28;20034;-67
2021/06/10 06:22:12;;;;;;;11.30;10.20;;;17.50;82.50;;;;;;4999749;28;20030;-66
2021/06/10 06:24:38;;;;;;;11.85;10.75;;;17.60;82.70;;;;;;5004376;28;20034;-67
2021/06/10 06:27:04;;;;;;;11.65;10.50;;;17.60;83.00;;;;;;4999591;28;20040;-67
2021/06/10 06:29:30;;;;;;;13.55;11.05;;;17.60;82.90;;;;;;4999980;28;20114;-67
2021/06/10 06:31:56;;;;;;;12.75;11.02;;;17.70;83.00;;;;;;4999367;28;20038;-68
2021/06/10 06:34:22;;;;;;;13.50;11.35;;;17.80;83.10;;;;;;4995894;28;20038;-67
2021/06/10 06:36:48;;;;;;;12.95;11.55;;;17.80;83.00;;;;;;4998071;28;20045;-67
2021/06/10 06:39:14;;;;;;;13.48;11.43;;;17.90;82.90;;;;;;4999365;28;20460;-67
2021/06/10 06:41:40;;;;;;;12.95;11.65;;;18.00;83.00;;;;;;4998549;28;20424;-68
2021/06/10 06:44:06;;;;;;;12.80;11.50;;;18.10;83.10;;;;;;5014048;28;20042;-67
2021/06/10 06:46:32;;;;;;;12.68;11.48;;;18.20;83.10;;;;;;4998953;28;20096;-67
2021/06/10 06:48:58;;;;;;;12.73;11.50;;;18.30;83.20;;;;;;4999357;28;20038;-67
2021/06/10 06:51:23;;;;;;;13.95;12.57;;;18.40;83.10;;;;;;4996735;28;20122;-68
2021/06/10 06:53:50;;;;;;;14.15;12.68;;;18.50;82.80;;;;;;4998126;28;20050;-67
2021/06/10 06:56:16;;;;;;;13.43;12.00;;;18.60;82.40;;;;;;4998985;28;20461;-67
2021/06/10 06:58:42;;;;;;;14.45;12.82;;;18.60;82.50;;;;;;4997657;28;20056;-68
2021/06/10 07:01:08;;;;;;;14.02;12.60;;;18.60;82.60;;;;;;4998506;28;20030;-68
2021/06/10 07:03:33;;;;;;;14.30;12.80;;;18.70;82.50;;;;;;4989082;28;20034;-68
2021/06/10 07:05:59;;;;;;;14.45;12.95;;;18.70;82.60;;;;;;4996298;28;21731;-67
2021/06/10 07:08:28;;;;;;;15.32;13.73;;;18.80;82.60;;;;;;4997222;28;20088;-67
2021/06/10 07:10:55;;;;;;;14.85;13.38;;;18.80;82.60;;;;;;4993664;28;20034;-67
2021/06/10 07:13:25;;;;;;;16.33;14.63;;;18.90;82.60;;;;;;4997109;28;20076;-67
2021/06/10 07:15:51;;;;;;;14.73;13.18;;;18.90;82.70;;;;;;4997362;28;20046;-68
2021/06/10 07:18:17;;;;;;;14.98;13.48;;;19.00;82.40;;;;;;4995953;28;21996;-68
2021/06/10 07:20:43;;;;;;;14.48;13.05;;;19.00;82.40;;;;;;4995470;28;20030;-67
2021/06/10 07:23:10;;;;;;;16.88;15.07;;;19.10;82.70;;;;;;5000043;28;20034;-67
2021/06/10 07:25:36;;;;;;;16.30;14.60;;;19.20;82.50;;;;;;4997196;28;20569;-68
2021/06/10 07:28:03;;;;;;;15.93;14.32;;;19.20;82.00;;;;;;4997861;28;20446;-68
2021/06/10 07:30:29;;;;;;;15.00;13.40;;;19.30;82.30;;;;;;4998064;28;20493;-67
2021/06/10 07:32:55;;;;;;;15.48;13.90;;;19.40;82.20;;;;;;4997934;28;20040;-67
2021/06/10 07:35:21;;;;;;;14.75;13.23;;;19.40;82.10;;;;;;4997185;28;20049;-67
2021/06/10 07:37:51;;;;;;;14.73;13.23;;;19.50;81.50;;;;;;4998278;28;20054;-68
2021/06/10 07:40:19;;;;;;;15.05;13.55;;;19.60;81.70;;;;;;4997916;28;20057;-68
2021/06/10 07:42:44;;;;;;;14.02;12.63;;;19.70;81.20;;;;;;4997277;28;20521;-67
2021/06/10 07:45:11;;;;;;;15.27;13.75;;;19.80;80.90;;;;;;4995463;28;20038;-67
2021/06/10 07:47:36;;;;;;;14.98;13.48;;;19.80;80.80;;;;;;4995882;28;20042;-68
2021/06/10 07:50:04;;;;;;;16.02;14.35;;;19.90;80.60;;;;;;4997935;28;20367;-67
2021/06/10 07:52:29;;;;;;;15.73;14.07;;;20.00;80.60;;;;;;4996796;28;20066;-68
2021/06/10 07:54:55;;;;;;;15.15;13.57;;;20.10;80.60;;;;;;4996709;28;20107;-68
2021/06/10 07:57:21;;;;;;;15.20;13.68;;;20.20;80.50;;;;;;4997043;28;20042;-67
2021/06/10 07:59:47;;;;;;;14.13;12.73;;;20.20;80.50;;;;;;4997768;28;20038;-68
2021/06/10 08:02:12;;;;;;;13.77;12.38;;;20.40;81.10;;;;;;5000277;28;20038;-67
2021/06/10 08:04:38;;;;;;;15.63;13.15;;;20.50;80.20;;;;;;5003057;28;20102;-68
2021/06/10 08:07:04;;;;;;;14.52;12.75;;;20.60;79.80;;;;;;5004200;28;20034;-68
2021/06/10 08:09:32;;;;;;;13.73;12.32;;;20.70;79.80;;;;;;5004484;28;20034;-67
2021/06/10 08:11:58;;;;;;;15.57;13.90;;;20.80;79.30;;;;;;5003129;28;20477;-68
2021/06/10 08:14:24;;;;;;;14.60;13.15;;;20.90;79.00;;;;;;5003216;28;20445;-67
2021/06/10 08:16:50;;;;;;;13.98;12.57;;;20.90;78.40;;;;;;5006149;28;20050;-68
2021/06/10 08:19:15;;;;;;;13.80;12.40;;;21.00;77.90;;;;;;5004000;28;20045;-68
2021/06/10 08:21:41;;;;;;;13.85;12.45;;;21.10;78.00;;;;;;5009782;28;20149;-68
2021/06/10 08:24:07;;;;;;;13.55;12.23;;;21.20;77.80;;;;;;5002485;28;20034;-68
2021/06/10 08:26:33;;;;;;;14.75;12.20;;;21.30;77.40;;;;;;5010497;28;20030;-68
2021/06/10 08:28:58;;;;;;;14.27;12.80;;;21.40;77.40;;;;;;5003752;28;20038;-68
2021/06/10 08:31:25;;;;;;;14.82;13.32;;;21.50;77.20;;;;;;5003548;28;20049;-68
2021/06/10 08:33:52;;;;;;;13.13;11.90;;;21.60;76.50;;;;;;5002126;28;20129;-67
2021/06/10 08:36:19;;;;;;;12.38;11.07;;;21.70;76.20;;;;;;5002029;28;20034;-68
2021/06/10 08:38:45;;;;;;;12.88;11.63;;;21.80;76.80;;;;;;5002171;28;20042;-68
2021/06/10 08:41:11;;;;;;;13.23;12.02;;;21.90;76.10;;;;;;5003278;28;20060;-68
2021/06/10 08:43:37;;;;;;;13.55;12.25;;;22.00;75.70;;;;;;5003898;28;20045;-67
2021/06/10 08:46:08;;;;;;;11.57;10.48;;;22.10;75.30;;;;;;5002271;28;20117;-68
2021/06/10 08:48:37;;;;;;;13.07;11.88;;;22.20;75.00;;;;;;5003214;28;20030;-68
2021/06/10 08:51:04;;;;;;;12.20;10.90;;;22.30;74.20;;;;;;5001115;28;20058;-68
2021/06/10 08:53:30;;;;;;;12.02;10.82;;;22.30;73.80;;;;;;5002922;28;20468;-68
2021/06/10 08:55:56;;;;;;;11.65;10.48;;;22.40;73.70;;;;;;5007754;28;20133;-68
2021/06/10 08:58:23;;;;;;;11.00;9.88;;;22.50;73.20;;;;;;5002065;28;20080;-68
2021/06/10 09:00:49;;;;;;;10.75;9.75;;;22.50;72.70;;;;;;5002565;28;20027;-68
2021/06/10 09:03:25;;;;;;;11.93;10.80;;;22.50;72.60;;;;;;5002663;28;20026;-68
2021/06/10 09:06:10;;;;;;;11.48;10.38;;;22.60;72.00;;;;;;5003266;28;20045;-68
2021/06/10 09:08:39;;;;;;;10.30;9.30;;;22.70;72.10;;;;;;5002073;28;20030;-68
2021/06/10 09:11:06;;;;;;;11.48;10.27;;;22.70;72.00;;;;;;5004657;28;20045;-68
2021/06/10 09:13:43;;;;;;;11.25;10.10;;;22.70;71.40;;;;;;5002054;28;20041;-68
2021/06/10 09:16:17;;;;;;;10.05;9.15;;;22.70;70.20;;;;;;5000817;28;20452;-68
2021/06/10 09:19:16;;;;;;;11.00;9.90;;;22.80;69.80;;;;;;5000936;28;20072;-68
2021/06/10 09:21:56;;;;;;;9.00;8.20;;;22.80;69.10;;;;;;4999445;28;20129;-68
2021/06/10 09:24:35;;;;;;;15.75;7.90;;;22.80;68.30;;;;;;5000559;28;20058;-68
2021/06/10 09:27:11;;;;;;;7.53;6.85;;;22.90;68.60;;;;;;5001149;28;20522;-68
2021/06/10 09:29:38;;;;;;;6.78;6.00;;;23.00;68.80;;;;;;4998604;28;20038;-68
2021/06/10 09:32:04;;;;;;;4.88;4.57;;;23.10;67.80;;;;;;4993698;28;20042;-68
2021/06/10 09:34:57;;;;;;;5.95;5.45;;;23.20;66.40;;;;;;4999391;28;20070;-68
2021/06/10 09:37:31;;;;;;;7.93;7.22;;;23.40;64.50;;;;;;5000699;28;20081;-68
2021/06/10 09:39:58;;;;;;;8.02;7.25;;;23.50;65.60;;;;;;5000478;28;20101;-68
2021/06/10 09:42:26;;;;;;;7.75;6.97;;;23.60;66.60;;;;;;4998607;28;20164;-67
2021/06/10 09:44:57;;;;;;;6.97;6.38;;;23.70;65.50;;;;;;4999433;28;20042;-68
2021/06/10 09:47:32;;;;;;;7.30;6.65;;;23.80;65.60;;;;;;5000519;28;20644;-68
2021/06/10 09:50:10;;;;;;;7.20;6.53;;;23.90;62.90;;;;;;4999425;28;20560;-68
2021/06/10 09:52:49;;;;;;;7.50;6.85;;;24.00;62.20;;;;;;4999596;28;20058;-68
2021/06/10 09:55:46;;;;;;;6.82;6.22;;;24.10;61.20;;;;;;4997308;28;20034;-68
2021/06/10 09:58:12;;;;;;;6.32;5.72;;;24.20;62.80;;;;;;4997486;28;20394;-68
2021/06/10 10:00:59;;;;;;;6.35;5.75;;;24.30;63.70;;;;;;4997085;28;20088;-67
2021/06/10 10:03:24;;;;;;;6.85;6.20;;;24.40;62.00;;;;;;4999945;28;20081;-68
2021/06/10 10:06:06;;;;;;;6.55;5.95;;;24.40;62.00;;;;;;4998667;28;20026;-68
2021/06/10 10:08:33;;;;;;;6.97;5.97;;;24.50;60.70;;;;;;4999589;28;20040;-68
2021/06/10 10:11:01;;;;;;;5.97;5.38;;;24.50;61.50;;;;;;4998762;28;20045;-68
2021/06/10 10:13:28;;;;;;;6.43;5.70;;;24.60;61.30;;;;;;4999106;28;20121;-68
2021/06/10 10:15:58;;;;;;;5.47;4.97;;;24.70;60.70;;;;;;5000020;28;20049;-68
2021/06/10 10:18:24;;;;;;;4.82;4.43;;;24.70;61.00;;;;;;5005608;28;20379;-68
2021/06/10 10:20:50;;;;;;;5.18;4.70;;;24.80;60.80;;;;;;4999807;28;20030;-68
2021/06/10 10:23:16;;;;;;;4.60;4.20;;;25.00;60.60;;;;;;4999882;28;20034;-68
2021/06/10 10:25:42;;;;;;;4.25;3.70;;;25.10;59.40;;;;;;4998755;28;20030;-68
2021/06/10 10:28:10;;;;;;;4.13;3.83;;;25.30;59.30;;;;;;5006132;28;20036;-68
2021/06/10 10:30:37;;;;;;;4.18;3.88;;;25.40;58.90;;;;;;4998519;28;20281;-68
2021/06/10 10:33:20;;;;;;;4.03;3.63;;;25.50;58.30;;;;;;4999134;28;20144;-68
2021/06/10 10:35:55;;;;;;;3.90;3.60;;;25.70;57.60;;;;;;4997646;28;20038;-68
2021/06/10 10:38:33;;;;;;;3.65;3.35;;;25.80;56.80;;;;;;4998552;28;20022;-68
2021/06/10 10:41:02;;;;;;;4.22;3.92;;;25.90;54.90;;;;;;4999310;28;20507;-68
2021/06/10 10:43:29;;;;;;;4.38;3.67;;;26.00;54.90;;;;;;4995859;28;20103;-68
2021/06/10 10:46:21;;;;;;;3.88;3.58;;;26.10;55.70;;;;;;4996077;28;20418;-68
2021/06/10 10:48:48;;;;;;;3.90;3.60;;;26.10;54.50;;;;;;5001010;28;20034;-68
2021/06/10 10:51:36;;;;;;;2.97;2.78;;;26.20;55.30;;;;;;5002214;28;20050;-68
2021/06/10 10:54:10;;;;;;;2.80;2.60;;;26.30;54.00;;;;;;4998469;28;20034;-68
2021/06/10 10:56:43;;;;;;;2.50;2.40;;;26.40;54.50;;;;;;5011186;28;20030;-68
2021/06/10 10:59:13;;;;;;;2.03;1.92;;;26.50;52.90;;;;;;4999753;28;20581;-68
2021/06/10 11:01:39;;;;;;;2.83;2.63;;;26.60;51.70;;;;;;4997479;28;20518;-68
2021/06/10 11:04:05;;;;;;;2.60;2.50;;;26.70;52.20;;;;;;4997848;28;20038;-68
2021/06/10 11:06:31;;;;;;;2.40;2.30;;;26.70;52.10;;;;;;4997794;28;20064;-68
2021/06/10 11:09:13;;;;;;;2.47;2.10;;;26.80;51.20;;;;;;5003498;28;20462;-68
2021/06/10 11:12:01;;;;;;;2.20;2.10;;;26.90;48.30;;;;;;4998216;28;20057;-68
2021/06/10 11:14:43;;;;;;;2.10;2.00;;;26.90;48.30;;;;;;4997607;28;20532;-68
2021/06/10 11:17:18;;;;;;;3.55;2.70;;;26.90;49.70;;;;;;4998745;28;20068;-68
2021/06/10 11:19:57;;;;;;;2.17;2.08;;;26.90;49.60;;;;;;4998248;28;20034;-68
2021/06/10 11:22:50;;;;;;;2.40;2.30;;;27.00;49.90;;;;;;4994971;28;20746;-69
2021/06/10 11:25:21;;;;;;;4.65;2.85;;;27.10;50.00;;;;;;4997787;28;20253;-69
2021/06/10 11:27:51;;;;;;;2.60;2.40;;;27.20;50.20;;;;;;4997419;28;20050;-68
2021/06/10 11:30:24;;;;;;;2.60;2.40;;;27.30;50.40;;;;;;4998521;28;20038;-68
2021/06/10 11:32:55;;;;;;;2.53;2.33;;;27.30;50.20;;;;;;4997875;28;20030;-68
2021/06/10 11:35:27;;;;;;;5.15;2.50;;;27.40;49.10;;;;;;4998073;28;20041;-68
2021/06/10 11:37:57;;;;;;;2.40;2.20;;;27.50;49.10;;;;;;4996239;28;20055;-69
2021/06/10 11:40:23;;;;;;;2.47;2.35;;;27.50;48.60;;;;;;4996480;28;20035;-69
2021/06/10 11:42:49;;;;;;;2.15;2.05;;;27.50;47.10;;;;;;4994941;28;20451;-68
2021/06/10 11:45:18;;;;;;;1.98;1.88;;;27.50;47.70;;;;;;4996691;28;20038;-69
2021/06/10 11:47:44;;;;;;;2.40;2.20;;;27.50;46.60;;;;;;4997124;28;20111;-68
2021/06/10 11:50:29;;;;;;;3.22;2.40;;;27.40;47.60;;;;;;4996239;28;20513;-69
2021/06/10 11:52:58;;;;;;;2.80;2.60;;;27.40;46.50;;;;;;4996630;28;20046;-69
2021/06/10 11:55:27;;;;;;;2.25;2.10;;;27.50;48.20;;;;;;5001911;28;20060;-69
2021/06/10 11:58:01;;;;;;;2.00;1.90;;;27.50;49.00;;;;;;4997338;28;20037;-68
2021/06/10 12:00:36;;;;;;;2.08;1.90;;;27.60;47.40;;;;;;4997193;28;20509;-68
2021/06/10 12:03:04;;;;;;;1.88;1.77;;;27.70;47.30;;;;;;4996839;28;20039;-69
2021/06/10 12:05:36;;;;;;;1.77;1.67;;;27.70;46.40;;;;;;4997720;28;20138;-69
2021/06/10 12:08:10;;;;;;;1.70;1.60;;;27.80;46.90;;;;;;4995677;28;20030;-69
2021/06/10 12:10:36;;;;;;;2.03;1.92;;;27.90;45.80;;;;;;4995927;28;20045;-68
2021/06/10 12:13:03;;;;;;;1.70;1.60;;;27.90;46.90;;;;;;4997265;28;20085;-69
2021/06/10 12:15:36;;;;;;;1.90;1.80;;;28.00;46.30;;;;;;4996893;28;20069;-68
2021/06/10 12:18:10;;;;;;;2.55;2.40;;;28.10;46.20;;;;;;4997019;28;20490;-66
2021/06/10 12:20:39;;;;;;;2.22;2.10;;;28.10;45.60;;;;;;4998444;28;20109;-66
2021/06/10 12:23:17;;;;;;;2.22;2.13;;;28.20;46.00;;;;;;4996785;28;20038;-66
2021/06/10 12:25:50;;;;;;;2.50;2.30;;;28.20;43.70;;;;;;4997640;28;20026;-66
2021/06/10 12:28:29;;;;;;;2.22;2.13;;;28.20;44.50;;;;;;4997019;28;20042;-66
2021/06/10 12:31:07;;;;;;;2.40;2.20;;;28.10;46.50;;;;;;4995847;28;20044;-66
2021/06/10 12:33:34;;;;;;;2.50;2.38;;;28.10;46.00;;;;;;4993295;28;20030;-66
2021/06/10 12:36:01;;;;;;;2.72;2.50;;;28.10;47.10;;;;;;4997710;28;20062;-65
2021/06/10 12:38:29;;;;;;;3.67;3.40;;;28.10;46.80;;;;;;4996204;28;20034;-66
2021/06/10 12:41:20;;;;;;;3.50;3.20;;;28.10;47.20;;;;;;5003621;28;20037;-66